Time;durP1;ratioP1;P1;durP2;ratioP2;P2;SDS_P1;SDS_P2;PMS_P1;PMS_P2;Temp;Humidity;BMP_temperature;BMP_pressure;BME280_temperature;BME280_humidity;BME280_pressure;Samples;Min_cycle;Max_cycle;Signal;HPM_P1;HPM_P2
2024/02/02 00:01:05;;;;;;;;;;;16.90;62.70;;;;;;5019265;28;1425;-70
2024/02/02 00:03:30;;;;;;;;;;;16.90;62.70;;;;;;5017737;28;1546;-70
2024/02/02 00:05:56;;;;;;;;;;;16.90;62.80;;;;;;5021627;28;1387;-70
2024/02/02 00:08:21;;;;;;;;;;;16.90;62.80;;;;;;5020141;28;1398;-70
2024/02/02 00:10:47;;;;;;;;;;;16.90;62.80;;;;;;5020728;28;1969;-70
2024/02/02 00:13:12;;;;;;;;;;;16.90;62.80;;;;;;5019123;28;1570;-70
2024/02/02 00:15:38;;;;;;;;;;;16.90;62.80;;;;;;5019358;28;1369;-70
2024/02/02 00:18:03;;;;;;;;;;;16.90;62.80;;;;;;5019392;28;1421;-70
2024/02/02 00:20:29;;;;;;;;;;;16.90;62.80;;;;;;5022419;28;1217;-70
2024/02/02 00:22:54;;;;;;;;;;;16.90;62.80;;;;;;5020393;28;1424;-70
2024/02/02 00:25:20;;;;;;;;;;;16.90;62.80;;;;;;5020612;28;1198;-70
2024/02/02 00:27:45;;;;;;;;;;;16.90;62.80;;;;;;5019270;28;1346;-70
2024/02/02 00:30:11;;;;;;;;;;;16.90;62.90;;;;;;5018094;28;1968;-70
2024/02/02 00:32:39;;;;;;;;;;;16.90;62.80;;;;;;5017524;28;928;-70
2024/02/02 00:35:05;;;;;;;;;;;16.90;62.90;;;;;;5018611;28;1501;-70
2024/02/02 00:37:30;;;;;;;;;;;16.90;62.90;;;;;;5022551;28;1312;-70
2024/02/02 00:39:56;;;;;;;;;;;16.90;62.90;;;;;;5017914;28;1399;-70
2024/02/02 00:42:21;;;;;;;;;;;16.90;62.80;;;;;;5017298;28;1655;-70
2024/02/02 00:44:47;;;;;;;;;;;16.90;62.90;;;;;;5019037;28;1448;-70
2024/02/02 00:47:12;;;;;;;;;;;16.90;62.90;;;;;;5017074;28;1405;-70
2024/02/02 00:49:39;;;;;;;;;;;16.90;62.90;;;;;;5018878;28;1961;-70
2024/02/02 00:52:05;;;;;;;;;;;16.90;62.90;;;;;;5019828;28;1455;-70
2024/02/02 00:54:30;;;;;;;;;;;16.90;62.90;;;;;;5015444;28;1307;-69
2024/02/02 00:56:56;;;;;;;;;;;16.90;62.90;;;;;;5019932;28;1284;-70
2024/02/02 00:59:24;;;;;;;;;;;16.90;62.90;;;;;;5020518;28;1328;-70
2024/02/02 01:01:49;;;;;;;;;;;16.90;63.00;;;;;;5014430;28;1441;-70
2024/02/02 01:04:15;;;;;;;;;;;16.90;62.90;;;;;;5019800;28;1463;-70
2024/02/02 01:06:40;;;;;;;;;;;16.90;62.90;;;;;;5019102;28;1337;-70
2024/02/02 01:09:06;;;;;;;;;;;16.90;62.90;;;;;;5018716;28;1930;-70
2024/02/02 01:11:31;;;;;;;;;;;16.80;62.90;;;;;;5018737;28;1700;-70
2024/02/02 01:13:57;;;;;;;;;;;16.90;62.90;;;;;;5018816;28;1377;-70
2024/02/02 01:16:22;;;;;;;;;;;16.80;62.90;;;;;;5020806;28;1075;-70
2024/02/02 01:18:48;;;;;;;;;;;16.90;63.00;;;;;;5017080;28;1312;-69
2024/02/02 01:21:13;;;;;;;;;;;16.90;63.00;;;;;;5020221;28;1343;-70
2024/02/02 01:23:39;;;;;;;;;;;16.80;62.90;;;;;;5020995;28;914;-69
2024/02/02 01:26:04;;;;;;;;;;;16.90;63.00;;;;;;5018906;28;1478;-70
2024/02/02 01:28:30;;;;;;;;;;;16.90;63.00;;;;;;5023193;28;1526;-69
2024/02/02 01:30:55;;;;;;;;;;;16.80;62.90;;;;;;5017545;28;1890;-70
2024/02/02 01:33:21;;;;;;;;;;;16.80;63.00;;;;;;5016386;28;1461;-69
2024/02/02 01:35:46;;;;;;;;;;;16.80;63.00;;;;;;5018391;28;1777;-70
2024/02/02 01:38:12;;;;;;;;;;;16.80;63.00;;;;;;5019062;28;1302;-70
2024/02/02 01:40:37;;;;;;;;;;;16.80;63.00;;;;;;5020000;28;1284;-69
2024/02/02 01:43:03;;;;;;;;;;;16.80;63.00;;;;;;5017877;28;1396;-70
2024/02/02 01:45:29;;;;;;;;;;;16.80;63.00;;;;;;5023076;28;1261;-69
2024/02/02 01:47:54;;;;;;;;;;;16.80;63.00;;;;;;5019030;28;1343;-70
2024/02/02 01:50:20;;;;;;;;;;;16.80;63.00;;;;;;5020853;28;1894;-70
2024/02/02 01:52:45;;;;;;;;;;;16.80;63.00;;;;;;5021476;28;1228;-70
2024/02/02 01:55:11;;;;;;;;;;;16.80;63.00;;;;;;5023430;28;1498;-70
2024/02/02 01:57:36;;;;;;;;;;;16.80;63.00;;;;;;5021818;28;1276;-70
2024/02/02 02:00:02;;;;;;;;;;;16.80;63.00;;;;;;5020284;28;1343;-70
2024/02/02 02:02:27;;;;;;;;;;;16.80;63.00;;;;;;5021892;28;1385;-70
2024/02/02 02:04:53;;;;;;;;;;;16.80;63.00;;;;;;5023935;28;1129;-69
2024/02/02 02:07:18;;;;;;;;;;;16.80;63.00;;;;;;5021242;28;1374;-70
2024/02/02 02:09:45;;;;;;;;;;;16.80;63.00;;;;;;5023652;28;1906;-70
2024/02/02 02:12:11;;;;;;;;;;;16.80;63.10;;;;;;5021506;28;1334;-70
2024/02/02 02:14:36;;;;;;;;;;;16.80;63.00;;;;;;5025591;28;1345;-72
2024/02/02 02:17:02;;;;;;;;;;;16.80;63.10;;;;;;5022626;28;1359;-71
2024/02/02 02:19:28;;;;;;;;;;;16.80;63.10;;;;;;5024134;28;1456;-71
2024/02/02 02:21:53;;;;;;;;;;;16.80;63.10;;;;;;5022936;28;1549;-70
2024/02/02 02:24:19;;;;;;;;;;;16.80;63.10;;;;;;5019715;28;1791;-72
2024/02/02 02:26:44;;;;;;;;;;;16.80;63.00;;;;;;5024890;28;1283;-71
2024/02/02 02:29:10;;;;;;;;;;;16.80;63.10;;;;;;5021714;28;1946;-71
2024/02/02 02:31:35;;;;;;;;;;;16.80;63.10;;;;;;5024714;28;1724;-69
2024/02/02 02:34:01;;;;;;;;;;;16.80;63.10;;;;;;5021677;28;1467;-70
2024/02/02 02:36:26;;;;;;;;;;;16.80;63.10;;;;;;5005783;28;1758;-71
2024/02/02 02:38:52;;;;;;;;;;;16.80;63.10;;;;;;5022003;28;1483;-71
2024/02/02 02:41:17;;;;;;;;;;;16.80;63.10;;;;;;5023293;28;1371;-71
2024/02/02 02:43:43;;;;;;;;;;;16.80;63.10;;;;;;5022951;28;1465;-71
2024/02/02 02:46:08;;;;;;;;;;;16.80;63.10;;;;;;5025532;28;1340;-70
2024/02/02 02:48:34;;;;;;;;;;;16.80;63.10;;;;;;5023744;28;1461;-70
2024/02/02 02:51:00;;;;;;;;;;;16.80;63.10;;;;;;5023157;28;2055;-68
2024/02/02 02:53:25;;;;;;;;;;;16.80;63.10;;;;;;5022919;28;1627;-72
2024/02/02 02:55:51;;;;;;;;;;;16.80;63.10;;;;;;5020933;28;1355;-70
2024/02/02 02:58:16;;;;;;;;;;;16.80;63.10;;;;;;5029147;28;1751;-69
2024/02/02 03:00:42;;;;;;;;;;;16.80;63.20;;;;;;5022266;28;1437;-69
2024/02/02 03:03:08;;;;;;;;;;;16.80;63.20;;;;;;5023490;28;1435;-69
2024/02/02 03:05:33;;;;;;;;;;;16.80;63.20;;;;;;5024723;28;1392;-71
2024/02/02 03:07:59;;;;;;;;;;;16.80;63.20;;;;;;5020575;28;1390;-70
2024/02/02 03:10:28;;;;;;;;;;;16.80;63.20;;;;;;5020578;28;1875;-72
2024/02/02 03:12:54;;;;;;;;;;;16.80;63.20;;;;;;5026620;28;1325;-70
2024/02/02 03:15:20;;;;;;;;;;;16.80;63.10;;;;;;5024629;28;1314;-71
2024/02/02 03:17:47;;;;;;;;;;;16.80;63.20;;;;;;5021475;28;1576;-72
2024/02/02 03:20:12;;;;;;;;;;;16.80;63.20;;;;;;5020293;28;1446;-72
2024/02/02 03:22:40;;;;;;;;;;;16.80;63.20;;;;;;5016746;28;1443;-72
2024/02/02 03:25:06;;;;;;;;;;;16.80;63.20;;;;;;5052554;28;1497;-71
2024/02/02 03:27:32;;;;;;;;;;;16.80;63.20;;;;;;5021116;28;1379;-71
2024/02/02 03:29:57;;;;;;;;;;;16.80;63.30;;;;;;5022152;28;1890;-71
2024/02/02 03:32:23;;;;;;;;;;;16.80;63.20;;;;;;5021365;28;1458;-71
2024/02/02 03:34:48;;;;;;;;;;;16.80;63.30;;;;;;5021991;28;1372;-71
2024/02/02 03:37:15;;;;;;;;;;;16.80;63.20;;;;;;5019208;28;1542;-72
2024/02/02 03:39:40;;;;;;;;;;;16.80;63.20;;;;;;5019351;28;1391;-72
2024/02/02 03:42:06;;;;;;;;;;;16.80;63.30;;;;;;5018744;28;1237;-72
2024/02/02 03:44:31;;;;;;;;;;;16.80;63.20;;;;;;5020592;28;1656;-72
2024/02/02 03:46:57;;;;;;;;;;;16.80;63.20;;;;;;5020655;28;1526;-70
2024/02/02 03:49:22;;;;;;;;;;;16.80;63.30;;;;;;5021942;28;1973;-72
2024/02/02 03:51:48;;;;;;;;;;;16.80;63.20;;;;;;5021744;28;1360;-72
2024/02/02 03:54:13;;;;;;;;;;;16.80;63.30;;;;;;5020986;28;1483;-71
2024/02/02 03:56:40;;;;;;;;;;;16.80;63.30;;;;;;5021250;28;1292;-71
2024/02/02 03:59:06;;;;;;;;;;;16.80;63.30;;;;;;5018886;28;1346;-69
2024/02/02 04:01:31;;;;;;;;;;;16.80;63.30;;;;;;5020266;28;1537;-71
2024/02/02 04:03:57;;;;;;;;;;;16.80;63.30;;;;;;5016215;28;1615;-70
2024/02/02 04:06:22;;;;;;;;;;;16.80;63.30;;;;;;5051219;28;1570;-69
2024/02/02 04:08:48;;;;;;;;;;;16.80;63.30;;;;;;5017858;28;1522;-69
2024/02/02 04:11:13;;;;;;;;;;;16.80;63.30;;;;;;5019823;28;1997;-70
2024/02/02 04:13:39;;;;;;;;;;;16.80;63.30;;;;;;5020073;28;1237;-69
2024/02/02 04:16:04;;;;;;;;;;;16.80;63.30;;;;;;5019351;28;1218;-69
2024/02/02 04:18:30;;;;;;;;;;;16.80;63.30;;;;;;5019135;28;1615;-68
2024/02/02 04:20:55;;;;;;;;;;;16.80;63.30;;;;;;5017581;28;1251;-69
2024/02/02 04:23:21;;;;;;;;;;;16.80;63.30;;;;;;5017038;28;1075;-68
2024/02/02 04:25:46;;;;;;;;;;;16.80;63.40;;;;;;5022420;28;1258;-70
2024/02/02 04:28:12;;;;;;;;;;;16.80;63.30;;;;;;5017663;28;1383;-70
2024/02/02 04:30:38;;;;;;;;;;;16.80;63.40;;;;;;5020445;28;1969;-69
2024/02/02 04:33:03;;;;;;;;;;;16.80;63.30;;;;;;5019417;28;946;-69
2024/02/02 04:35:34;;;;;;;;;;;16.80;63.30;;;;;;5019997;28;1332;-69
2024/02/02 04:38:03;;;;;;;;;;;16.80;63.40;;;;;;5017191;28;1331;-69
2024/02/02 04:40:28;;;;;;;;;;;16.70;63.30;;;;;;5016008;28;1464;-68
2024/02/02 04:42:54;;;;;;;;;;;16.80;64.10;;;;;;5018834;28;1280;-71
2024/02/02 04:45:19;;;;;;;;;;;16.80;63.40;;;;;;5020718;28;1446;-70
2024/02/02 04:47:45;;;;;;;;;;;16.80;63.40;;;;;;5018672;28;1605;-71
2024/02/02 04:50:10;;;;;;;;;;;16.80;63.40;;;;;;5020247;28;1971;-71
2024/02/02 04:52:36;;;;;;;;;;;16.70;63.30;;;;;;5018638;28;1562;-71
2024/02/02 04:55:01;;;;;;;;;;;16.70;63.30;;;;;;5009572;28;1269;-71
2024/02/02 04:57:27;;;;;;;;;;;16.70;63.30;;;;;;5019290;28;1656;-69
2024/02/02 04:59:54;;;;;;;;;;;16.80;63.40;;;;;;5020528;28;1558;-69
2024/02/02 05:02:19;;;;;;;;;;;16.70;63.30;;;;;;5017007;28;1281;-71
2024/02/02 05:04:45;;;;;;;;;;;16.80;63.40;;;;;;5017312;28;1269;-70
2024/02/02 05:07:10;;;;;;;;;;;16.70;63.30;;;;;;5017698;28;1538;-71
2024/02/02 05:09:36;;;;;;;;;;;16.80;63.40;;;;;;5018493;28;1906;-71
2024/02/02 05:12:01;;;;;;;;;;;16.80;63.30;;;;;;5018907;28;1449;-70
2024/02/02 05:14:27;;;;;;;;;;;16.80;63.30;;;;;;5019761;28;1230;-71
2024/02/02 05:16:52;;;;;;;;;;;16.80;63.20;;;;;;5020157;28;1544;-70
2024/02/02 05:19:18;;;;;;;;;;;16.80;63.20;;;;;;5027015;28;1435;-70
2024/02/02 05:21:43;;;;;;;;;;;16.80;63.00;;;;;;5019661;28;1350;-71
2024/02/02 05:24:09;;;;;;;;;;;16.90;62.90;;;;;;5017117;28;1459;-70
2024/02/02 05:26:35;;;;;;;;;;;16.90;62.80;;;;;;5019727;28;1213;-70
2024/02/02 05:29:00;;;;;;;;;;;17.00;62.70;;;;;;5017652;28;1969;-70
2024/02/02 05:31:26;;;;;;;;;;;17.00;62.60;;;;;;5015849;28;1533;-68
2024/02/02 05:33:51;;;;;;;;;;;17.00;62.40;;;;;;5020627;28;1459;-70
2024/02/02 05:36:17;;;;;;;;;;;17.10;62.40;;;;;;5017691;28;1136;-71
2024/02/02 05:38:42;;;;;;;;;;;17.10;62.20;;;;;;5020007;28;1418;-69
2024/02/02 05:41:08;;;;;;;;;;;17.10;62.20;;;;;;5018458;28;1427;-70
2024/02/02 05:43:33;;;;;;;;;;;17.10;62.10;;;;;;5018708;28;1185;-69
2024/02/02 05:45:59;;;;;;;;;;;17.20;62.10;;;;;;5015308;28;1262;-69
2024/02/02 05:48:24;;;;;;;;;;;17.20;61.90;;;;;;5017747;28;1596;-70
2024/02/02 05:50:50;;;;;;;;;;;17.20;61.80;;;;;;5020677;28;1942;-69
2024/02/02 05:53:15;;;;;;;;;;;17.20;61.90;;;;;;5017185;28;1505;-69
2024/02/02 05:55:41;;;;;;;;;;;17.20;61.60;;;;;;5018246;28;1445;-69
2024/02/02 05:58:07;;;;;;;;;;;17.30;61.60;;;;;;5015221;28;1264;-69
2024/02/02 06:00:32;;;;;;;;;;;17.30;61.60;;;;;;5020695;28;1432;-69
2024/02/02 06:02:58;;;;;;;;;;;17.30;61.50;;;;;;5018017;28;1669;-69
2024/02/02 06:05:23;;;;;;;;;;;17.30;61.50;;;;;;5019278;28;1646;-69
2024/02/02 06:07:49;;;;;;;;;;;17.30;61.40;;;;;;5018852;28;1469;-68
2024/02/02 06:10:14;;;;;;;;;;;17.30;61.40;;;;;;5017899;28;1902;-69
2024/02/02 06:12:40;;;;;;;;;;;17.30;61.40;;;;;;5015018;28;1517;-69
2024/02/02 06:15:06;;;;;;;;;;;17.30;61.30;;;;;;5019647;28;1281;-69
2024/02/02 06:17:31;;;;;;;;;;;17.40;61.40;;;;;;5020167;28;1288;-70
2024/02/02 06:19:57;;;;;;;;;;;17.40;61.30;;;;;;5017230;28;1266;-67
2024/02/02 06:22:22;;;;;;;;;;;17.40;61.30;;;;;;5003380;28;1502;-69
2024/02/02 06:24:48;;;;;;;;;;;17.40;61.20;;;;;;5018345;28;1365;-71
2024/02/02 06:27:13;;;;;;;;;;;17.40;61.20;;;;;;5018073;28;1441;-70
2024/02/02 06:29:39;;;;;;;;;;;17.40;61.20;;;;;;5017752;28;1906;-70
2024/02/02 06:32:05;;;;;;;;;;;17.40;61.20;;;;;;5018438;28;1526;-69
2024/02/02 06:34:30;;;;;;;;;;;17.40;61.10;;;;;;5015106;28;1399;-70
2024/02/02 06:36:56;;;;;;;;;;;17.40;61.10;;;;;;5023219;28;1326;-68
2024/02/02 06:39:21;;;;;;;;;;;17.40;61.10;;;;;;5024022;28;1324;-69
2024/02/02 06:41:47;;;;;;;;;;;17.40;61.10;;;;;;5020984;28;1483;-69
2024/02/02 06:44:12;;;;;;;;;;;17.40;61.10;;;;;;5020733;28;1240;-70
2024/02/02 06:46:38;;;;;;;;;;;17.40;61.10;;;;;;5022224;28;1750;-70
2024/02/02 06:49:03;;;;;;;;;;;17.40;61.10;;;;;;5022359;28;1910;-69
2024/02/02 06:51:29;;;;;;;;;;;17.40;61.10;;;;;;5023401;28;1252;-69
2024/02/02 06:53:54;;;;;;;;;;;17.40;61.10;;;;;;5018076;28;1633;-69
2024/02/02 06:56:38;;;;;;;;;;;17.40;61.10;;;;;;5021194;28;1403;-71
2024/02/02 06:59:05;;;;;;;;;;;17.40;61.20;;;;;;5020414;28;1338;-69
2024/02/02 07:01:30;;;;;;;;;;;17.40;61.10;;;;;;5021448;28;1229;-69
2024/02/02 07:03:56;;;;;;;;;;;17.40;61.10;;;;;;5019490;28;1615;-70
2024/02/02 07:06:21;;;;;;;;;;;17.40;61.20;;;;;;5020276;28;1259;-70
2024/02/02 07:08:47;;;;;;;;;;;17.40;61.20;;;;;;5020729;28;1235;-68
2024/02/02 07:11:12;;;;;;;;;;;17.40;61.20;;;;;;5015927;28;1906;-70
2024/02/02 07:13:47;;;;;;;;;;;17.40;61.20;;;;;;5023623;28;1084;-71
2024/02/02 07:16:16;;;;;;;;;;;17.40;61.30;;;;;;5018080;28;1159;-70
2024/02/02 07:18:42;;;;;;;;;;;17.40;61.20;;;;;;5021602;28;1324;-70
2024/02/02 07:21:07;;;;;;;;;;;17.40;61.30;;;;;;5022750;28;1400;-70
2024/02/02 07:23:34;;;;;;;;;;;17.40;62.10;;;;;;5014716;28;1391;-69
2024/02/02 07:26:00;;;;;;;;;;;17.40;61.30;;;;;;5019678;28;1407;-70
2024/02/02 07:28:26;;;;;;;;;;;17.40;61.40;;;;;;5019386;28;1495;-69
2024/02/02 07:30:54;;;;;;;;;;;17.40;61.30;;;;;;5020691;28;1898;-70
2024/02/02 07:33:38;;;;;;;;;;;17.40;61.30;;;;;;5018411;28;1262;-70
2024/02/02 07:36:04;;;;;;;;;;;17.40;61.40;;;;;;5020543;28;1325;-70
2024/02/02 07:38:30;;;;;;;;;;;17.30;61.30;;;;;;5019244;28;1744;-70
2024/02/02 07:41:05;;;;;;;;;;;17.30;61.30;;;;;;5021703;28;1088;-69
2024/02/02 07:43:33;;;;;;;;;;;17.30;61.40;;;;;;5018645;28;1350;-71
2024/02/02 07:46:01;;;;;;;;;;;17.30;61.40;;;;;;5017815;28;1301;-70
2024/02/02 07:48:27;;;;;;;;;;;17.30;61.40;;;;;;5019177;28;1346;-70
2024/02/02 07:50:52;;;;;;;;;;;17.30;61.40;;;;;;5017484;28;1947;-70
2024/02/02 07:53:18;;;;;;;;;;;17.30;61.40;;;;;;5017446;28;1173;-70
2024/02/02 07:55:44;;;;;;;;;;;17.30;61.50;;;;;;5018450;28;1551;-70
2024/02/02 07:58:09;;;;;;;;;;;17.30;61.50;;;;;;5019460;28;1252;-68
2024/02/02 08:00:35;;;;;;;;;;;17.30;61.50;;;;;;5019356;28;1675;-69
2024/02/02 08:03:00;;;;;;;;;;;17.30;61.50;;;;;;5019780;28;1707;-69
2024/02/02 08:05:27;;;;;;;;;;;17.30;61.50;;;;;;5018825;28;1577;-68
2024/02/02 08:07:52;;;;;;;;;;;17.30;61.50;;;;;;5019751;28;1619;-69
2024/02/02 08:10:18;;;;;;;;;;;17.30;61.60;;;;;;5018222;28;1906;-70
2024/02/02 08:12:43;;;;;;;;;;;17.30;61.60;;;;;;5020248;28;1521;-70
2024/02/02 08:15:09;;;;;;;;;;;17.30;61.60;;;;;;5019379;28;1557;-70
2024/02/02 08:17:34;;;;;;;;;;;17.30;61.60;;;;;;5021515;28;1875;-68
2024/02/02 08:20:00;;;;;;;;;;;17.30;61.60;;;;;;5018870;28;1377;-70
2024/02/02 08:22:25;;;;;;;;;;;17.30;61.60;;;;;;5019205;28;1475;-70
2024/02/02 08:24:51;;;;;;;;;;;17.30;61.60;;;;;;5016863;28;1331;-69
2024/02/02 08:27:19;;;;;;;;;;;17.30;61.60;;;;;;5017916;28;1581;-67
2024/02/02 08:29:45;;;;;;;;;;;17.30;61.60;;;;;;5020733;28;1899;-68
2024/02/02 08:32:11;;;;;;;;;;;17.30;61.60;;;;;;5016701;28;2122;-70
2024/02/02 08:34:36;;;;;;;;;;;17.30;61.60;;;;;;5018882;28;1473;-68
2024/02/02 08:37:02;;;;;;;;;;;17.30;61.60;;;;;;5018676;28;1546;-67
2024/02/02 08:39:28;;;;;;;;;;;17.30;61.60;;;;;;5015858;28;1331;-68
2024/02/02 08:41:54;;;;;;;;;;;17.30;61.60;;;;;;5017144;28;1588;-68
2024/02/02 08:44:23;;;;;;;;;;;17.30;61.60;;;;;;5014966;28;1546;-68
2024/02/02 08:46:48;;;;;;;;;;;17.30;61.60;;;;;;5018730;28;1315;-68
2024/02/02 08:49:40;;;;;;;;;;;17.30;61.50;;;;;;5016887;28;1902;-68
2024/02/02 08:52:08;;;;;;;;;;;17.30;61.50;;;;;;5016556;28;1567;-68
2024/02/02 08:54:35;;;;;;;;;;;17.30;61.80;;;;;;5017799;28;1754;-67
2024/02/02 08:57:07;;;;;;;;;;;17.40;61.50;;;;;;5018963;28;1487;-68
2024/02/02 08:59:41;;;;;;;;;;;17.40;61.40;;;;;;5021129;28;1292;-68
2024/02/02 09:02:07;;;;;;;;;;;17.40;61.40;;;;;;5019732;28;1177;-69
2024/02/02 09:04:41;;;;;;;;;;;17.40;61.30;;;;;;5020559;28;1736;-68
2024/02/02 09:07:08;;;;;;;;;;;17.40;61.30;;;;;;5017034;28;1395;-68
2024/02/02 09:09:34;;;;;;;;;;;17.40;61.20;;;;;;5026548;28;1965;-68
2024/02/02 09:11:59;;;;;;;;;;;17.40;61.20;;;;;;5018579;28;1258;-68
2024/02/02 09:14:25;;;;;;;;;;;17.40;61.20;;;;;;5017482;28;1656;-69
2024/02/02 09:16:51;;;;;;;;;;;17.50;61.20;;;;;;5017361;28;1390;-69
2024/02/02 09:19:25;;;;;;;;;;;17.40;61.10;;;;;;5019998;28;1586;-69
2024/02/02 09:21:50;;;;;;;;;;;17.50;61.10;;;;;;5016003;28;943;-69
2024/02/02 09:24:23;;;;;;;;;;;17.50;61.10;;;;;;5021585;28;1359;-69
2024/02/02 09:26:48;;;;;;;;;;;17.50;61.00;;;;;;5020326;28;1362;-68
2024/02/02 09:29:14;;;;;;;;;;;17.50;61.00;;;;;;5019314;28;1953;-68
2024/02/02 09:31:39;;;;;;;;;;;17.50;60.90;;;;;;5018695;28;1440;-69
2024/02/02 09:34:06;;;;;;;;;;;17.50;60.90;;;;;;5017733;28;1326;-68
2024/02/02 09:36:32;;;;;;;;;;;17.50;60.90;;;;;;5017439;28;1464;-68
2024/02/02 09:39:00;;;;;;;;;;;17.50;60.80;;;;;;5020132;28;1585;-68
2024/02/02 09:41:25;;;;;;;;;;;17.50;60.80;;;;;;5019365;28;1559;-68
2024/02/02 09:43:51;;;;;;;;;;;17.50;60.80;;;;;;5018567;28;1450;-70
2024/02/02 09:46:25;;;;;;;;;;;17.60;60.80;;;;;;5019470;28;1355;-70
2024/02/02 09:48:50;;;;;;;;;;;17.50;60.80;;;;;;5018870;28;1543;-70
2024/02/02 09:51:38;;;;;;;;;;;17.50;60.80;;;;;;5017158;28;1906;-69
2024/02/02 09:54:22;;;;;;;;;;;17.50;60.80;;;;;;5017745;28;836;-68
2024/02/02 09:56:48;;;;;;;;;;;17.50;60.80;;;;;;5020398;28;1449;-69
2024/02/02 09:59:43;;;;;;;;;;;17.50;60.80;;;;;;5023033;28;1242;-69
2024/02/02 10:02:27;;;;;;;;;;;17.50;60.90;;;;;;5017879;28;1565;-70
2024/02/02 10:04:57;;;;;;;;;;;17.50;61.00;;;;;;5018049;28;1546;-70
2024/02/02 10:07:25;;;;;;;;;;;17.50;60.90;;;;;;5017634;28;1374;-68
2024/02/02 10:10:14;;;;;;;;;;;17.50;61.00;;;;;;5019121;28;1967;-69
2024/02/02 10:12:43;;;;;;;;;;;17.50;60.90;;;;;;5018737;28;1561;-69
2024/02/02 10:15:08;;;;;;;;;;;17.50;61.00;;;;;;5023420;28;1217;-68
2024/02/02 10:17:53;;;;;;;;;;;17.50;61.00;;;;;;5020423;28;1451;-72
2024/02/02 10:20:37;;;;;;;;;;;17.50;61.00;;;;;;5023682;28;1309;-69
2024/02/02 10:23:09;;;;;;;;;;;17.50;60.90;;;;;;5020986;28;1366;-72
2024/02/02 10:25:47;;;;;;;;;;;17.50;60.90;;;;;;5023894;28;1485;-67
2024/02/02 10:28:25;;;;;;;;;;;17.50;60.90;;;;;;5024151;28;1374;-70
2024/02/02 10:31:06;;;;;;;;;;;17.50;60.90;;;;;;5021175;28;1890;-69
2024/02/02 10:33:35;;;;;;;;;;;17.50;60.90;;;;;;5039682;28;1590;-69
2024/02/02 10:36:00;;;;;;;;;;;17.50;60.90;;;;;;5023231;28;1373;-70
2024/02/02 10:38:30;;;;;;;;;;;17.50;60.90;;;;;;5021148;28;1379;-70
2024/02/02 10:41:02;;;;;;;;;;;17.50;60.90;;;;;;5019589;28;1149;-70
2024/02/02 10:43:29;;;;;;;;;;;17.50;60.80;;;;;;5027013;28;1378;-71
2024/02/02 10:46:13;;;;;;;;;;;17.50;60.90;;;;;;5026900;28;1511;-71
2024/02/02 10:48:38;;;;;;;;;;;17.50;60.80;;;;;;5022589;28;1384;-71
2024/02/02 10:51:16;;;;;;;;;;;17.50;60.80;;;;;;5023440;28;1960;-71
2024/02/02 10:54:08;;;;;;;;;;;17.60;60.80;;;;;;5022537;28;1411;-72
2024/02/02 10:56:36;;;;;;;;;;;17.50;60.80;;;;;;5023932;28;1670;-71
2024/02/02 10:59:13;;;;;;;;;;;17.60;60.80;;;;;;5023307;28;1766;-69
2024/02/02 11:01:38;;;;;;;;;;;17.60;60.80;;;;;;5037237;28;1402;-71
2024/02/02 11:04:22;;;;;;;;;;;17.60;60.70;;;;;;5019886;28;1523;-70
2024/02/02 11:07:06;;;;;;;;;;;17.60;60.80;;;;;;5019685;28;1502;-68
2024/02/02 11:09:52;;;;;;;;;;;17.60;60.70;;;;;;5018423;28;1902;-69
2024/02/02 11:12:28;;;;;;;;;;;17.60;60.70;;;;;;5018317;28;1587;-70
2024/02/02 11:14:57;;;;;;;;;;;17.60;60.70;;;;;;5017403;28;1536;-68
2024/02/02 11:17:24;;;;;;;;;;;17.60;60.80;;;;;;5020888;28;1556;-70
2024/02/02 11:19:57;;;;;;;;;;;17.60;60.70;;;;;;5018068;28;1677;-70
2024/02/02 11:22:24;;;;;;;;;;;17.60;60.80;;;;;;5018437;28;1617;-68
2024/02/02 11:24:52;;;;;;;;;;;17.60;60.80;;;;;;5020356;28;1522;-70
2024/02/02 11:27:38;;;;;;;;;;;17.50;60.70;;;;;;5024301;28;1280;-69
2024/02/02 11:30:06;;;;;;;;;;;17.50;60.80;;;;;;5019295;28;1969;-69
2024/02/02 11:32:47;;;;;;;;;;;17.50;60.80;;;;;;5020988;28;1402;-69
2024/02/02 11:35:31;;;;;;;;;;;17.50;60.90;;;;;;5026844;28;1341;-69
2024/02/02 11:38:11;;;;;;;;;;;17.50;60.90;;;;;;5020090;28;1351;-70
2024/02/02 11:40:37;;;;;;;;;;;17.50;61.00;;;;;;5017136;28;1630;-69
2024/02/02 11:43:02;;;;;;;;;;;17.50;61.00;;;;;;5026453;28;1346;-69
2024/02/02 11:45:28;;;;;;;;;;;17.50;61.00;;;;;;5020354;28;1615;-71
2024/02/02 11:47:57;;;;;;;;;;;17.50;61.00;;;;;;5026839;28;1456;-69
2024/02/02 11:50:22;;;;;;;;;;;17.50;61.00;;;;;;5021002;28;1910;-69
2024/02/02 11:52:51;;;;;;;;;;;17.50;61.00;;;;;;5026816;28;1303;-69
2024/02/02 11:55:20;;;;;;;;;;;17.50;61.00;;;;;;5021137;28;1389;-69
2024/02/02 11:57:50;;;;;;;;;;;17.50;61.10;;;;;;5019914;28;1276;-69
2024/02/02 12:00:33;;;;;;;;;;;17.50;61.00;;;;;;5017874;28;1290;-69
2024/02/02 12:03:05;;;;;;;;;;;17.50;61.00;;;;;;5034272;28;1456;-69
2024/02/02 12:05:35;;;;;;;;;;;17.50;61.00;;;;;;5021112;28;1677;-69
2024/02/02 12:08:07;;;;;;;;;;;17.50;60.90;;;;;;5021423;28;1718;-69
2024/02/02 12:10:34;;;;;;;;;;;17.50;60.90;;;;;;5017855;28;1968;-69
2024/02/02 12:13:03;;;;;;;;;;;17.50;60.90;;;;;;5020741;28;1274;-69
2024/02/02 12:15:29;;;;;;;;;;;17.50;60.80;;;;;;5018416;28;2134;-70
2024/02/02 12:17:55;;;;;;;;;;;17.60;60.90;;;;;;5019126;28;1661;-69
2024/02/02 12:20:21;;;;;;;;;;;17.60;60.90;;;;;;5019459;28;1904;-69
2024/02/02 12:22:47;;;;;;;;;;;17.60;60.80;;;;;;5019598;28;1271;-70
2024/02/02 12:25:14;;;;;;;;;;;17.60;60.80;;;;;;5019910;28;1248;-70
2024/02/02 12:27:40;;;;;;;;;;;17.60;60.80;;;;;;5019191;28;1375;-70
2024/02/02 12:30:07;;;;;;;;;;;17.60;60.90;;;;;;5021989;28;1965;-69
2024/02/02 12:32:33;;;;;;;;;;;17.60;60.80;;;;;;5016197;28;1458;-69
2024/02/02 12:34:58;;;;;;;;;;;17.60;60.80;;;;;;5022009;28;1349;-70
2024/02/02 12:37:24;;;;;;;;;;;17.50;60.80;;;;;;5018474;28;1293;-71
2024/02/02 12:39:52;;;;;;;;;;;17.50;60.90;;;;;;5019150;28;1232;-70
2024/02/02 12:42:17;;;;;;;;;;;17.50;60.90;;;;;;5017401;28;1410;-69
2024/02/02 12:44:43;;;;;;;;;;;17.50;60.90;;;;;;5021987;28;1327;-70
2024/02/02 12:47:08;;;;;;;;;;;17.50;61.00;;;;;;5017528;28;1579;-70
2024/02/02 12:49:34;;;;;;;;;;;17.50;61.00;;;;;;5019812;28;1966;-70
2024/02/02 12:52:00;;;;;;;;;;;17.50;61.00;;;;;;5021295;28;1305;-69
2024/02/02 12:54:25;;;;;;;;;;;17.50;61.00;;;;;;5020181;28;1246;-71
2024/02/02 12:56:51;;;;;;;;;;;17.50;61.00;;;;;;5016499;28;1373;-70
2024/02/02 12:59:17;;;;;;;;;;;17.50;61.00;;;;;;5001738;28;1533;-69
2024/02/02 13:01:47;;;;;;;;;;;17.50;61.00;;;;;;5014020;28;1380;-68
2024/02/02 13:04:14;;;;;;;;;;;17.50;61.00;;;;;;5017117;28;1088;-69
2024/02/02 13:06:40;;;;;;;;;;;17.50;60.90;;;;;;5017420;28;1354;-68
2024/02/02 13:09:26;;;;;;;;;;;17.50;60.90;;;;;;5017876;28;1152;-69
2024/02/02 13:11:55;;;;;;;;;;;17.50;60.90;;;;;;5018647;28;1567;-68
2024/02/02 13:14:33;;;;;;;;;;;17.50;60.90;;;;;;5026811;28;1243;-71
2024/02/02 13:17:08;;;;;;;;;;;17.50;60.90;;;;;;5019687;28;1599;-70
2024/02/02 13:19:47;;;;;;;;;;;17.50;60.90;;;;;;5017385;28;1824;-70
2024/02/02 13:22:26;;;;;;;;;;;17.60;60.90;;;;;;5018042;28;1237;-70
2024/02/02 13:24:53;;;;;;;;;;;17.60;60.80;;;;;;5017004;28;1322;-70
2024/02/02 13:27:22;;;;;;;;;;;17.60;60.90;;;;;;5017559;28;1588;-71
2024/02/02 13:29:49;;;;;;;;;;;17.60;60.80;;;;;;5016096;28;1886;-70
2024/02/02 13:32:16;;;;;;;;;;;17.60;60.80;;;;;;5015048;28;1658;-69
2024/02/02 13:34:41;;;;;;;;;;;17.60;60.70;;;;;;5016534;28;1658;-69
2024/02/02 13:37:07;;;;;;;;;;;17.60;60.80;;;;;;5015237;28;1263;-70
2024/02/02 13:39:33;;;;;;;;;;;17.60;60.70;;;;;;5019890;28;875;-70
2024/02/02 13:42:00;;;;;;;;;;;17.60;60.70;;;;;;5018087;28;927;-69
2024/02/02 13:44:26;;;;;;;;;;;17.60;60.70;;;;;;5020178;28;860;-68
2024/02/02 13:46:53;;;;;;;;;;;17.60;60.70;;;;;;5020144;28;1364;-68
2024/02/02 13:49:36;;;;;;;;;;;17.60;60.70;;;;;;5024309;28;1960;-68
2024/02/02 13:52:02;;;;;;;;;;;17.60;60.70;;;;;;5023759;28;1602;-68
2024/02/02 13:54:27;;;;;;;;;;;17.60;60.70;;;;;;5023921;28;1389;-69
2024/02/02 13:56:53;;;;;;;;;;;17.60;60.70;;;;;;5022822;28;1511;-69
2024/02/02 13:59:19;;;;;;;;;;;17.60;60.70;;;;;;5022482;28;1370;-69
2024/02/02 14:01:45;;;;;;;;;;;17.60;60.70;;;;;;5025231;28;1451;-69
2024/02/02 14:04:11;;;;;;;;;;;17.60;60.70;;;;;;5022019;28;1559;-71
2024/02/02 14:06:37;;;;;;;;;;;17.60;60.70;;;;;;5019735;28;1955;-68
2024/02/02 14:09:04;;;;;;;;;;;17.60;60.70;;;;;;5030276;28;1358;-68
2024/02/02 14:11:30;;;;;;;;;;;17.60;60.70;;;;;;5029944;28;1969;-69
2024/02/02 14:13:57;;;;;;;;;;;17.60;60.70;;;;;;5019394;28;1411;-69
2024/02/02 14:16:23;;;;;;;;;;;17.60;60.70;;;;;;5020792;28;1204;-69
2024/02/02 14:19:01;;;;;;;;;;;17.60;60.70;;;;;;5021923;28;1297;-69
2024/02/02 14:21:30;;;;;;;;;;;17.60;60.70;;;;;;5022761;28;1265;-69
2024/02/02 14:24:07;;;;;;;;;;;17.60;60.70;;;;;;5021005;28;1346;-69
2024/02/02 14:26:33;;;;;;;;;;;17.60;60.70;;;;;;5021628;28;1494;-70
2024/02/02 14:28:58;;;;;;;;;;;17.60;60.60;;;;;;5021819;28;1611;-70
2024/02/02 14:31:25;;;;;;;;;;;17.60;60.60;;;;;;5020005;28;1902;-70
2024/02/02 14:33:50;;;;;;;;;;;17.60;60.60;;;;;;5018490;28;1250;-70